Time;durP1;ratioP1;P1;durP2;ratioP2;P2;SDS_P1;SDS_P2;PMS_P1;PMS_P2;Temp;Humidity;BMP_temperature;BMP_pressure;BME280_temperature;BME280_humidity;BME280_pressure;Samples;Min_cycle;Max_cycle;Signal;HPM_P1;HPM_P2
2022/10/07 00:01:08;;;;;;;9.10;3.40;;;;;;;8.09;100.00;102609.44;5116184;28;20052;-55
2022/10/07 00:03:37;;;;;;;10.40;3.50;;;;;;;8.08;100.00;102614.72;5116027;28;20112;-51
2022/10/07 00:06:10;;;;;;;10.20;2.85;;;;;;;8.01;100.00;102610.53;5115971;28;20069;-49
2022/10/07 00:08:42;;;;;;;9.18;2.60;;;;;;;8.05;100.00;102605.16;5113761;28;20071;-49
2022/10/07 00:11:12;;;;;;;10.40;2.65;;;;;;;8.09;100.00;102605.97;5113324;28;20052;-49
2022/10/07 00:13:42;;;;;;;12.63;2.70;;;;;;;7.99;100.00;102609.72;5113702;28;20044;-50
2022/10/07 00:16:12;;;;;;;8.48;2.97;;;;;;;8.04;100.00;102607.84;5112896;28;20044;-49
2022/10/07 00:18:41;;;;;;;9.73;2.97;;;;;;;7.99;100.00;102604.47;5112561;28;20461;-50
2022/10/07 00:21:11;;;;;;;8.63;3.00;;;;;;;7.92;100.00;102602.03;5113409;28;20044;-49
2022/10/07 00:23:42;;;;;;;9.93;3.17;;;;;;;7.85;100.00;102597.81;5113610;28;20093;-49
2022/10/07 00:26:12;;;;;;;7.22;2.78;;;;;;;7.81;100.00;102598.78;5113306;28;20089;-50
2022/10/07 00:28:40;;;;;;;8.77;2.58;;;;;;;7.79;100.00;102600.59;5113083;28;20147;-49
2022/10/07 00:31:10;;;;;;;9.13;3.00;;;;;;;7.88;100.00;102596.88;5112759;28;20096;-50
2022/10/07 00:33:39;;;;;;;7.05;2.90;;;;;;;7.85;100.00;102591.72;5114257;28;20051;-52
2022/10/07 00:36:08;;;;;;;6.65;2.92;;;;;;;7.85;100.00;102586.50;5113175;28;20051;-52
2022/10/07 00:38:36;;;;;;;7.10;3.10;;;;;;;7.89;100.00;102583.75;5114564;28;20054;-52
2022/10/07 00:41:07;;;;;;;8.90;3.75;;;;;;;7.79;100.00;102587.50;5112095;28;20111;-52
2022/10/07 00:43:35;;;;;;;10.35;2.72;;;;;;;7.79;100.00;102579.66;5113044;28;20047;-51
2022/10/07 00:46:12;;;;;;;6.97;2.70;;;;;;;7.69;100.00;102583.41;5112786;27;20122;-49
2022/10/07 00:48:41;;;;;;;9.10;3.05;;;;;;;7.69;100.00;102580.78;5111845;28;20043;-49
2022/10/07 00:51:09;;;;;;;9.80;3.20;;;;;;;7.71;100.00;102573.75;5113951;28;20051;-52
2022/10/07 00:53:41;;;;;;;10.07;3.25;;;;;;;7.76;100.00;102571.88;5113114;28;20245;-53
2022/10/07 00:56:11;;;;;;;9.77;3.22;;;;;;;7.64;100.00;102559.09;5111600;28;20055;-51
2022/10/07 00:58:42;;;;;;;10.50;2.90;;;;;;;7.63;100.00;102554.75;5113938;28;20039;-50
2022/10/07 01:01:11;;;;;;;11.80;3.22;;;;;;;7.63;100.00;102554.75;5111937;28;20062;-51
2022/10/07 01:03:39;;;;;;;8.15;2.95;;;;;;;7.66;100.00;102549.44;5111602;28;20549;-51
2022/10/07 01:06:09;;;;;;;9.40;2.97;;;;;;;7.63;100.00;102552.16;5112432;28;20344;-51
2022/10/07 01:08:37;;;;;;;8.07;2.85;;;;;;;7.60;100.00;102551.31;5114602;28;20062;-50
2022/10/07 01:11:19;;;;;;;8.65;3.20;;;;;;;7.54;100.00;102543.63;5114479;28;20478;-48
2022/10/07 01:13:58;;;;;;;9.23;3.45;;;;;;;7.52;100.00;102545.41;5112478;28;20462;-50
2022/10/07 01:16:34;;;;;;;10.13;3.40;;;;;;;7.50;100.00;102549.84;5113767;28;20044;-50
2022/10/07 01:19:18;;;;;;;13.38;3.90;;;;;;;7.55;100.00;102545.34;5114178;28;20047;-51
2022/10/07 01:22:01;;;;;;;11.50;3.47;;;;;;;7.61;100.00;102537.31;5112506;28;20098;-53
2022/10/07 01:24:40;;;;;;;13.05;3.83;;;;;;;7.62;100.00;102522.47;5111788;28;20040;-51
2022/10/07 01:27:14;;;;;;;10.35;3.65;;;;;;;7.69;100.00;102520.53;5113920;28;20036;-53
2022/10/07 01:29:54;;;;;;;14.73;3.83;;;;;;;7.69;100.00;102524.03;5113326;28;20051;-52
2022/10/07 01:32:31;;;;;;;8.82;3.40;;;;;;;7.65;100.00;102525.03;5109585;28;20059;-52
2022/10/07 01:35:00;;;;;;;9.52;3.28;;;;;;;7.60;100.00;102514.66;5112041;28;20071;-52
2022/10/07 01:37:34;;;;;;;11.93;3.72;;;;;;;7.61;100.00;102512.91;5111711;28;20044;-49
2022/10/07 01:40:08;;;;;;;9.88;3.47;;;;;;;7.56;100.00;102507.78;5112058;28;20051;-49
2022/10/07 01:42:38;;;;;;;11.52;3.78;;;;;;;7.64;100.00;102504.13;5114040;27;20070;-49
2022/10/07 01:45:10;;;;;;;13.40;3.42;;;;;;;7.53;100.00;102505.25;5114011;28;20058;-51
2022/10/07 01:47:38;;;;;;;8.88;3.42;;;;;;;7.57;100.00;102503.41;5111260;28;20035;-51
2022/10/07 01:50:11;;;;;;;11.70;3.45;;;;;;;7.61;100.00;102492.81;5111756;27;20048;-49
2022/10/07 01:52:51;;;;;;;10.52;3.40;;;;;;;7.59;100.00;102494.63;5112117;28;20558;-50
2022/10/07 01:55:37;;;;;;;9.65;3.25;;;;;;;7.50;100.00;102493.97;5111197;28;20120;-49
2022/10/07 01:58:23;;;;;;;9.30;3.58;;;;;;;7.51;100.00;102486.09;5111210;28;20035;-52
2022/10/07 02:01:00;;;;;;;12.88;3.65;;;;;;;7.43;100.00;102491.53;5113666;28;20047;-52
2022/10/07 02:03:38;;;;;;;13.73;3.47;;;;;;;7.49;100.00;102487.91;5112122;28;20048;-49
2022/10/07 02:06:13;;;;;;;13.32;3.92;;;;;;;7.52;100.00;102477.34;5111818;28;20459;-50
2022/10/07 02:08:47;;;;;;;10.98;3.75;;;;;;;7.51;100.00;102480.00;5111211;28;20039;-48
2022/10/07 02:11:20;;;;;;;11.85;3.83;;;;;;;7.51;100.00;102473.03;5109709;28;20532;-49
2022/10/07 02:13:57;;;;;;;8.80;3.40;;;;;;;7.50;100.00;102466.06;5111302;28;20055;-51
2022/10/07 02:16:31;;;;;;;9.25;3.65;;;;;;;7.51;100.00;102467.78;5110885;28;20104;-52
2022/10/07 02:19:02;;;;;;;12.77;3.78;;;;;;;7.37;100.00;102460.25;5110079;28;20108;-52
2022/10/07 02:21:35;;;;;;;13.82;4.18;;;;;;;7.36;100.00;102457.69;5111051;28;20633;-53
2022/10/07 02:24:04;;;;;;;14.27;4.00;;;;;;;7.32;100.00;102456.06;5110961;28;20100;-52
2022/10/07 02:26:35;;;;;;;12.45;3.55;;;;;;;7.38;100.00;102451.53;5111666;28;20528;-48
2022/10/07 02:29:08;;;;;;;11.10;3.95;;;;;;;7.37;100.00;102457.66;5109674;28;20382;-53
2022/10/07 02:31:40;;;;;;;10.70;3.75;;;;;;;7.37;100.00;102459.41;5112876;28;20032;-49
2022/10/07 02:34:12;;;;;;;14.55;4.28;;;;;;;7.38;100.00;102453.28;5113414;28;20043;-47
2022/10/07 02:36:51;;;;;;;11.88;4.10;;;;;;;7.35;100.00;102454.22;5113074;28;20047;-50
2022/10/07 02:39:20;;;;;;;;;;;;;;;7.41;100.00;102447.97;5113581;28;20489;-50
2022/10/07 02:41:53;;;;;;;13.70;3.90;;;;;;;7.45;100.00;102444.38;5112573;28;19919;-50
2022/10/07 02:44:29;;;;;;;10.32;3.90;;;;;;;7.40;100.00;102448.84;5112958;28;20127;-49
2022/10/07 02:47:03;;;;;;;13.88;3.92;;;;;;;7.35;100.00;102437.63;5112510;28;20044;-53
2022/10/07 02:49:37;;;;;;;11.40;4.50;;;;;;;7.39;100.00;102431.44;5110181;28;20104;-50
2022/10/07 02:52:08;;;;;;;11.63;4.15;;;;;;;7.38;100.00;102429.72;5110811;28;20048;-49
2022/10/07 02:54:40;;;;;;;14.65;4.45;;;;;;;7.28;100.00;102429.97;5112627;28;20068;-52
2022/10/07 02:57:10;;;;;;;12.53;4.17;;;;;;;7.25;100.00;102418.72;5110244;28;20048;-49
2022/10/07 02:59:41;;;;;;;10.30;3.97;;;;;;;7.22;100.00;102410.94;5111172;28;20096;-49
2022/10/07 03:02:16;;;;;;;13.85;4.53;;;;;;;7.19;100.00;102424.97;5108843;28;20051;-53
2022/10/07 03:04:48;;;;;;;13.15;4.15;;;;;;;7.20;100.00;102416.22;5113139;28;20417;-50
2022/10/07 03:07:16;;;;;;;12.60;4.10;;;;;;;7.21;100.00;102415.34;5109146;28;20051;-50
2022/10/07 03:09:44;;;;;;;13.27;4.80;;;;;;;7.19;100.00;102404.03;5110474;28;20047;-50
2022/10/07 03:12:12;;;;;;;12.50;4.97;;;;;;;7.13;100.00;102408.56;5110295;28;20397;-48
2022/10/07 03:14:43;;;;;;;10.95;4.45;;;;;;;7.16;100.00;102409.34;5111887;28;20044;-49
2022/10/07 03:17:11;;;;;;;10.80;4.40;;;;;;;7.14;100.00;102408.53;5112632;28;20061;-49
2022/10/07 03:19:40;;;;;;;12.50;4.53;;;;;;;7.08;100.00;102409.53;5115437;28;20138;-49
2022/10/07 03:22:08;;;;;;;14.00;4.28;;;;;;;7.10;100.00;102399.91;5113982;28;20097;-50
2022/10/07 03:24:36;;;;;;;16.80;4.07;;;;;;;7.10;100.00;102394.69;5113916;28;20062;-51
2022/10/07 03:27:06;;;;;;;12.20;4.63;;;;;;;7.15;100.00;102397.16;5113645;28;20060;-51
2022/10/07 03:29:34;;;;;;;9.77;4.50;;;;;;;7.18;100.00;102397.06;5114472;28;20044;-49
2022/10/07 03:32:04;;;;;;;13.68;4.75;;;;;;;7.13;100.00;102392.84;5112624;28;20512;-52
2022/10/07 03:34:32;;;;;;;12.68;4.30;;;;;;;7.07;100.00;102393.88;5115374;28;20066;-52
2022/10/07 03:37:00;;;;;;;13.95;4.63;;;;;;;7.08;100.00;102390.38;5114498;28;20050;-52
2022/10/07 03:39:28;;;;;;;12.50;4.25;;;;;;;7.14;100.00;102390.19;5113853;28;20047;-54
2022/10/07 03:41:56;;;;;;;9.98;4.07;;;;;;;7.07;100.00;102391.28;5114282;28;20562;-51
2022/10/07 03:44:24;;;;;;;11.77;4.20;;;;;;;7.09;100.00;102389.50;5113835;28;20431;-49
2022/10/07 03:46:53;;;;;;;14.07;4.28;;;;;;;7.07;100.00;102378.19;5113763;28;20088;-49
2022/10/07 03:49:22;;;;;;;14.65;4.72;;;;;;;6.99;100.00;102378.38;5111159;28;20420;-50
2022/10/07 03:51:50;;;;;;;12.48;4.57;;;;;;;6.99;100.00;102373.16;5113646;28;20109;-50
2022/10/07 03:54:18;;;;;;;14.20;4.78;;;;;;;7.00;100.00;102372.25;5113424;28;20075;-50
2022/10/07 03:56:47;;;;;;;13.95;4.72;;;;;;;7.02;100.00;102367.84;5113800;28;20049;-53
2022/10/07 03:59:15;;;;;;;13.10;4.60;;;;;;;6.99;100.00;102369.69;5113422;28;20096;-52
2022/10/07 04:01:43;;;;;;;13.45;4.53;;;;;;;6.96;100.00;102362.75;5113052;28;20079;-53
2022/10/07 04:04:11;;;;;;;13.85;4.63;;;;;;;6.96;100.00;102367.16;5113273;28;20050;-49
2022/10/07 04:06:42;;;;;;;11.50;4.47;;;;;;;6.99;100.00;102364.44;5115125;28;20043;-45
2022/10/07 04:09:12;;;;;;;12.23;4.72;;;;;;;6.94;100.00;102357.56;5112243;28;20052;-45
2022/10/07 04:11:40;;;;;;;10.52;4.60;;;;;;;7.02;100.00;102362.63;5113704;28;20047;-47
2022/10/07 04:14:09;;;;;;;12.18;4.30;;;;;;;6.91;100.00;102362.91;5115617;28;20043;-48
2022/10/07 04:16:37;;;;;;;14.13;4.30;;;;;;;6.98;100.00;102360.97;5115850;28;20051;-49
2022/10/07 04:19:06;;;;;;;14.00;4.95;;;;;;;6.96;100.00;102351.47;5114524;28;20048;-45
2022/10/07 04:21:34;;;;;;;10.52;4.28;;;;;;;6.87;100.00;102356.03;5113567;28;20055;-49
2022/10/07 04:24:03;;;;;;;13.98;5.00;;;;;;;6.88;100.00;102359.50;5114749;28;20119;-47
2022/10/07 04:26:31;;;;;;;15.10;4.18;;;;;;;6.87;100.00;102356.03;5115007;28;20043;-50
2022/10/07 04:29:00;;;;;;;12.90;4.90;;;;;;;6.86;100.00;102358.69;5114121;28;20108;-49
2022/10/07 04:31:28;;;;;;;16.60;5.50;;;;;;;6.81;100.00;102360.56;5115338;28;20490;-47
2022/10/07 04:33:56;;;;;;;13.70;5.13;;;;;;;6.82;100.00;102360.50;5113865;28;20256;-47
2022/10/07 04:36:26;;;;;;;12.30;4.22;;;;;;;6.85;100.00;102354.34;5115529;28;20047;-45
2022/10/07 04:38:54;;;;;;;10.75;4.60;;;;;;;6.86;100.00;102349.06;5115133;28;20100;-48
2022/10/07 04:41:23;;;;;;;18.23;5.15;;;;;;;6.80;100.00;102348.38;5115357;28;20047;-48
2022/10/07 04:43:53;;;;;;;10.63;5.05;;;;;;;6.78;100.00;102351.03;5115271;28;20044;-47
2022/10/07 04:46:25;;;;;;;13.90;5.00;;;;;;;6.74;100.00;102344.16;5114880;28;20073;-47
2022/10/07 04:48:53;;;;;;;13.40;5.07;;;;;;;6.75;100.00;102344.09;5114750;28;20122;-49
2022/10/07 04:51:21;;;;;;;10.32;4.65;;;;;;;6.78;100.00;102343.19;5114703;28;20378;-48
2022/10/07 04:53:52;;;;;;;13.40;4.55;;;;;;;6.74;100.00;102338.91;5114698;28;20506;-49
2022/10/07 04:56:27;;;;;;;12.52;4.80;;;;;;;6.79;100.00;102346.63;5115265;28;20105;-46
2022/10/07 04:58:55;;;;;;;14.23;4.93;;;;;;;6.73;100.00;102337.19;5113645;28;20100;-49
2022/10/07 05:01:23;;;;;;;14.15;5.10;;;;;;;6.76;100.00;102339.72;5110530;28;20069;-47
2022/10/07 05:03:52;;;;;;;13.55;4.90;;;;;;;6.80;100.00;102330.91;5110990;28;20574;-47
2022/10/07 05:06:21;;;;;;;11.68;4.95;;;;;;;6.76;100.00;102340.59;5114243;28;20076;-48
2022/10/07 05:08:53;;;;;;;16.92;4.70;;;;;;;6.79;100.00;102328.34;5112828;28;20035;-48
2022/10/07 05:11:21;;;;;;;13.10;4.88;;;;;;;6.71;100.00;102331.16;5111796;28;20046;-48
2022/10/07 05:13:51;;;;;;;9.82;4.72;;;;;;;6.68;100.00;102323.38;5113485;28;20041;-47
2022/10/07 05:16:19;;;;;;;14.95;5.57;;;;;;;6.66;100.00;102328.66;5114459;28;20039;-48
2022/10/07 05:18:47;;;;;;;12.63;5.22;;;;;;;6.62;100.00;102323.53;5114586;28;20043;-49
2022/10/07 05:21:15;;;;;;;13.80;4.97;;;;;;;6.60;100.00;102321.81;5114472;28;20054;-46
2022/10/07 05:23:43;;;;;;;12.40;4.78;;;;;;;6.62;100.00;102316.56;5114676;28;20043;-46
2022/10/07 05:26:12;;;;;;;11.80;5.00;;;;;;;6.60;100.00;102324.44;5114357;28;20051;-47
2022/10/07 05:28:41;;;;;;;12.05;5.03;;;;;;;6.55;100.00;102318.44;5112142;28;20134;-46
2022/10/07 05:31:12;;;;;;;12.38;5.28;;;;;;;6.63;100.00;102322.66;5111198;28;20097;-47
2022/10/07 05:33:41;;;;;;;10.82;4.50;;;;;;;6.52;100.00;102318.53;5111085;28;20046;-47
2022/10/07 05:36:10;;;;;;;12.10;4.50;;;;;;;6.49;100.00;102318.63;5110313;28;20488;-49
2022/10/07 05:38:38;;;;;;;11.43;4.75;;;;;;;6.53;100.00;102314.16;5111370;28;20498;-47
2022/10/07 05:41:10;;;;;;;12.27;4.72;;;;;;;6.51;100.00;102322.03;5112095;28;20046;-51
2022/10/07 05:43:41;;;;;;;10.27;4.22;;;;;;;6.50;100.00;102314.25;5113912;28;20278;-52
2022/10/07 05:46:13;;;;;;;16.15;4.65;;;;;;;6.51;100.00;102314.19;5114172;28;20044;-50
2022/10/07 05:48:45;;;;;;;13.43;5.03;;;;;;;6.52;100.00;102312.47;5114007;28;20043;-45
2022/10/07 05:51:15;;;;;;;13.50;4.97;;;;;;;6.54;100.00;102305.44;5114000;28;20109;-52
2022/10/07 05:53:45;;;;;;;15.43;4.68;;;;;;;6.47;100.00;102304.72;5111822;28;20060;-46
2022/10/07 05:56:16;;;;;;;10.75;4.45;;;;;;;6.54;100.00;102305.44;5112108;28;20202;-45
2022/10/07 05:58:44;;;;;;;12.60;5.57;;;;;;;6.52;100.00;102307.22;5113127;28;20402;-51
2022/10/07 06:01:15;;;;;;;13.93;5.30;;;;;;;6.53;100.00;102304.56;5110096;28;20068;-50
2022/10/07 06:03:48;;;;;;;11.68;4.72;;;;;;;6.54;100.00;102306.28;5111609;28;20402;-50
2022/10/07 06:06:16;;;;;;;13.10;5.00;;;;;;;6.58;100.00;102301.84;5112126;28;20055;-52
2022/10/07 06:08:44;;;;;;;9.50;4.35;;;;;;;6.49;100.00;102302.94;5111199;28;20514;-48
2022/10/07 06:14:00;;;;;;;12.13;4.93;;;;;;;6.52;100.00;102296.78;5111873;28;20105;-50
2022/10/07 06:16:29;;;;;;;15.13;5.40;;;;;;;6.58;100.00;102302.69;5110880;28;20051;-48
2022/10/07 06:18:58;;;;;;;12.95;5.10;;;;;;;6.58;100.00;102302.69;5108708;28;20051;-51
2022/10/07 06:21:27;;;;;;;12.55;4.78;;;;;;;6.53;100.00;102304.56;5110247;28;20496;-49
2022/10/07 06:23:57;;;;;;;12.02;4.60;;;;;;;6.53;100.00;102304.56;5111097;28;20097;-51
2022/10/07 06:26:25;;;;;;;9.98;4.18;;;;;;;6.58;100.00;102297.47;5111939;28;20536;-50
2022/10/07 06:28:53;;;;;;;11.38;4.30;;;;;;;6.60;100.00;102298.28;5110806;28;20383;-48
2022/10/07 06:31:24;;;;;;;10.55;4.53;;;;;;;6.60;100.00;102305.28;5109575;28;20048;-46
2022/10/07 06:33:54;;;;;;;14.85;5.00;;;;;;;6.66;100.00;102304.28;5112874;28;20489;-50
2022/10/07 06:36:23;;;;;;;15.50;4.85;;;;;;;6.72;100.00;102304.09;5111669;28;20075;-48
2022/10/07 06:38:54;;;;;;;15.55;4.88;;;;;;;6.72;100.00;102304.97;5110478;28;20048;-49
2022/10/07 06:41:23;;;;;;;10.88;4.20;;;;;;;6.77;100.00;102303.06;5110864;28;20486;-46
2022/10/07 06:43:55;;;;;;;11.93;4.40;;;;;;;6.82;100.00;102296.91;5112042;28;20101;-47
2022/10/07 06:46:23;;;;;;;12.20;4.60;;;;;;;6.86;100.00;102304.59;5112624;28;20505;-47
2022/10/07 06:48:53;;;;;;;13.25;4.28;;;;;;;6.90;100.00;102302.78;5112427;28;20050;-47
2022/10/07 06:51:22;;;;;;;11.15;4.32;;;;;;;6.98;100.00;102300.81;5112812;28;20078;-46
2022/10/07 06:53:52;;;;;;;17.52;4.90;;;;;;;7.03;100.00;102300.69;5112775;28;20128;-44
2022/10/07 06:56:21;;;;;;;19.17;5.72;;;;;;;7.13;100.00;102299.53;5112749;28;20506;-45
2022/10/07 06:58:49;;;;;;;15.18;4.72;;;;;;;7.29;100.00;102299.97;5112819;28;20043;-45
2022/10/07 07:01:17;;;;;;;11.75;5.30;;;;;;;7.47;100.00;102297.72;5112876;28;20093;-45
2022/10/07 07:03:46;;;;;;;18.83;5.15;;;;;;;7.64;100.00;102305.09;5112876;28;20062;-46
2022/10/07 07:06:15;;;;;;;13.68;4.97;;;;;;;7.73;100.00;102305.69;5112845;28;20039;-47
2022/10/07 07:08:44;;;;;;;18.63;5.05;;;;;;;7.87;100.00;102300.03;5112933;28;20122;-50
2022/10/07 07:13:59;;;;;;;17.50;5.07;;;;;;;8.51;100.00;102296.28;5110206;28;20430;-49
2022/10/07 07:16:28;;;;;;;18.52;5.18;;;;;;;8.52;100.00;102292.75;5108673;28;20220;-52
2022/10/07 07:18:58;;;;;;;19.92;5.70;;;;;;;8.72;100.00;102291.22;5109370;28;20044;-48
2022/10/07 07:21:28;;;;;;;16.30;4.65;;;;;;;8.89;100.00;102294.13;5110381;28;20079;-48
2022/10/07 07:23:57;;;;;;;15.23;4.88;;;;;;;9.30;100.00;102293.56;5112520;28;20044;-50
2022/10/07 07:26:27;;;;;;;17.17;5.13;;;;;;;9.55;100.00;102295.25;5110388;28;20052;-53
2022/10/07 07:28:57;;;;;;;18.48;5.18;;;;;;;9.60;100.00;102301.22;5111480;28;20043;-49
2022/10/07 07:31:28;;;;;;;18.42;5.32;;;;;;;9.92;100.00;102299.94;5112442;28;20378;-52
2022/10/07 07:33:59;;;;;;;11.75;4.55;;;;;;;10.28;100.00;102307.28;5112385;28;20104;-53
2022/10/07 07:36:32;;;;;;;18.30;4.90;;;;;;;10.31;100.00;102307.16;5112424;28;20103;-50
2022/10/07 07:39:02;;;;;;;15.93;5.90;;;;;;;10.39;100.00;102301.63;5112596;28;20043;-54
2022/10/07 07:41:33;;;;;;;17.13;4.70;;;;;;;10.48;100.00;102295.13;5110864;28;20112;-54
2022/10/07 07:44:05;;;;;;;19.17;5.18;;;;;;;10.80;100.00;102296.38;5110086;28;20048;-48
2022/10/07 07:46:38;;;;;;;16.63;5.72;;;;;;;10.86;100.00;102292.63;5109408;28;20127;-52
2022/10/07 07:49:06;;;;;;;17.90;4.90;;;;;;;10.81;100.00;102284.94;5108937;28;20071;-51
2022/10/07 07:51:35;;;;;;;18.38;5.05;;;;;;;10.90;100.00;102291.59;5111106;28;20067;-50
2022/10/07 07:54:04;;;;;;;17.65;4.93;;;;;;;10.80;100.00;102290.28;5109920;28;20056;-51
2022/10/07 07:56:32;;;;;;;16.67;5.85;;;;;;;10.82;100.00;102294.56;5111876;28;20067;-51
2022/10/07 07:59:02;;;;;;;12.70;4.47;;;;;;;10.90;100.00;102291.59;5112293;28;20142;-51
2022/10/07 08:01:31;;;;;;;14.20;5.00;;;;;;;10.90;100.00;102296.84;5113544;28;20048;-51
2022/10/07 08:04:00;;;;;;;15.35;4.85;;;;;;;10.90;100.00;102291.59;5112533;28;20063;-51
2022/10/07 08:06:31;;;;;;;14.23;4.35;;;;;;;11.01;100.00;102288.47;5113634;28;20051;-53
2022/10/07 08:09:01;;;;;;;13.45;4.43;;;;;;;11.05;100.00;102281.31;5115307;28;20048;-52
2022/10/07 08:11:31;;;;;;;17.38;4.75;;;;;;;11.47;100.00;102282.94;5115690;28;20043;-53
2022/10/07 08:14:02;;;;;;;18.00;4.15;;;;;;;11.92;100.00;102279.06;5115478;28;20131;-50
2022/10/07 08:16:30;;;;;;;18.10;4.28;;;;;;;12.32;100.00;102273.63;5112899;28;20048;-52
2022/10/07 08:18:58;;;;;;;12.20;3.78;;;;;;;12.38;100.00;102273.34;5113267;28;20040;-55
2022/10/07 08:21:31;;;;;;;13.15;4.07;;;;;;;12.36;100.00;102269.91;5115673;27;20040;-54
2022/10/07 08:24:03;;;;;;;15.57;3.63;;;;;;;12.31;100.00;102272.78;5115238;28;20100;-51
2022/10/07 08:26:33;;;;;;;12.70;3.67;;;;;;;12.40;100.00;102271.47;5115530;28;20549;-53
2022/10/07 08:29:01;;;;;;;17.98;3.65;;;;;;;12.55;100.00;102258.44;5115447;28;20044;-51
2022/10/07 08:31:30;;;;;;;16.70;3.42;;;;;;;12.85;100.00;102254.19;5115195;28;20402;-53
2022/10/07 08:34:01;;;;;;;17.42;3.63;;;;;;;12.87;100.00;102253.28;5115304;28;20044;-53
2022/10/07 08:36:31;;;;;;;16.67;3.58;;;;;;;13.19;100.00;102248.91;5114917;28;20452;-55
2022/10/07 08:39:01;;;;;;;18.83;3.47;;;;;;;13.43;100.00;102251.19;5114890;28;20051;-56
2022/10/07 08:41:52;;;;;;;17.42;3.47;;;;;;;13.77;100.00;102236.97;5113672;28;20044;-53
2022/10/07 08:44:26;;;;;;;9.98;2.65;;;;;;;14.14;100.00;102240.13;5112738;28;20086;-55
2022/10/07 08:47:06;;;;;;;17.00;3.38;;;;;;;14.43;100.00;102236.72;5112822;27;20074;-56
2022/10/07 08:49:43;;;;;;;9.35;2.83;;;;;;;14.53;100.00;102235.22;5113382;28;20036;-56
2022/10/07 08:52:32;;;;;;;14.93;2.72;;;;;;;14.72;100.00;102236.78;5114882;28;20468;-55
2022/10/07 08:55:03;;;;;;;15.38;2.97;;;;;;;15.09;100.00;102238.00;5114603;28;20059;-56
2022/10/07 08:57:45;;;;;;;11.30;2.45;;;;;;;15.11;100.00;102232.66;5115014;27;20104;-56
2022/10/07 09:00:16;;;;;;;;;;;;;;;15.15;100.00;102231.50;5112794;28;20047;-55
2022/10/07 09:03:01;;;;;;;11.65;2.20;;;;;;;15.32;100.00;102227.78;5110845;28;19931;-57
2022/10/07 09:05:34;;;;;;;11.38;3.08;;;;;;;15.43;99.58;102224.44;5112376;28;20050;-57
2022/10/07 09:08:06;;;;;;;13.23;2.88;;;;;;;15.58;100.00;102223.44;5112794;28;20494;-57
2022/10/07 09:10:40;;;;;;;15.98;3.10;;;;;;;15.68;99.52;102227.22;5112232;28;20398;-56
2022/10/07 09:13:13;;;;;;;15.23;3.38;;;;;;;15.86;98.19;102219.03;5112046;27;20043;-55
2022/10/07 09:15:46;;;;;;;11.18;2.78;;;;;;;16.03;98.47;102212.59;5111990;28;20055;-56
2022/10/07 09:18:20;;;;;;;13.80;3.35;;;;;;;16.08;97.42;102214.97;5109403;28;20057;-56
2022/10/07 09:20:52;;;;;;;13.05;3.10;;;;;;;16.25;96.61;102205.84;5112685;28;20044;-54
2022/10/07 09:23:23;;;;;;;13.52;2.95;;;;;;;16.45;96.39;102207.16;5114402;28;20039;-56
2022/10/07 09:25:52;;;;;;;15.48;3.17;;;;;;;16.42;94.74;102205.56;5114431;28;20088;-57
2022/10/07 09:28:25;;;;;;;14.32;2.60;;;;;;;16.51;92.90;102193.44;5114375;28;20059;-58
2022/10/07 09:30:54;;;;;;;11.43;2.60;;;;;;;16.66;91.10;102194.19;5113900;28;20116;-57
2022/10/07 09:33:24;;;;;;;16.40;3.75;;;;;;;16.86;91.99;102192.81;5110848;28;20092;-57
2022/10/07 09:35:55;;;;;;;13.88;3.45;;;;;;;17.04;90.91;102188.88;5113271;28;20040;-57
2022/10/07 09:38:33;;;;;;;12.77;2.70;;;;;;;17.17;88.79;102188.84;5114372;28;20050;-57
2022/10/07 09:41:18;;;;;;;13.35;2.83;;;;;;;17.41;88.15;102182.72;5114030;28;20063;-58
2022/10/07 09:44:05;;;;;;;16.50;2.90;;;;;;;17.60;86.33;102176.91;5114045;28;20050;-57
2022/10/07 09:46:52;;;;;;;13.75;2.42;;;;;;;17.83;88.81;102176.97;5112126;28;20520;-51
2022/10/07 09:49:40;;;;;;;11.85;2.72;;;;;;;17.95;88.77;102169.91;5110178;28;20114;-58
2022/10/07 09:52:17;;;;;;;16.23;2.50;;;;;;;17.96;86.22;102164.47;5113943;28;20100;-56
2022/10/07 09:54:47;;;;;;;12.57;2.78;;;;;;;17.94;86.33;102165.56;5113897;28;20062;-50
2022/10/07 09:57:29;;;;;;;11.10;2.78;;;;;;;17.85;85.51;102167.06;5111726;28;20447;-57
2022/10/07 10:00:17;;;;;;;12.63;2.78;;;;;;;17.68;86.12;102161.22;5111994;28;20063;-58
2022/10/07 10:02:48;;;;;;;12.52;2.13;;;;;;;17.68;87.04;102163.88;5113639;28;20039;-58
2022/10/07 10:05:27;;;;;;;12.18;2.58;;;;;;;17.70;85.64;102155.78;5113495;28;20048;-58
2022/10/07 10:08:01;;;;;;;12.23;2.20;;;;;;;17.60;84.12;102162.72;5112443;28;20060;-58
2022/10/07 10:10:31;;;;;;;13.60;2.40;;;;;;;17.62;82.97;102152.84;5113380;28;20040;-52
2022/10/07 10:13:03;;;;;;;13.70;2.38;;;;;;;17.70;82.62;102150.44;5113642;28;20048;-52
2022/10/07 10:15:41;;;;;;;12.30;2.20;;;;;;;17.54;81.58;102148.91;5112248;28;20043;-50
2022/10/07 10:18:34;;;;;;;14.20;2.60;;;;;;;17.85;82.77;102151.09;5109576;28;20494;-52
2022/10/07 10:21:18;;;;;;;12.52;2.80;;;;;;;17.69;80.54;102146.09;5112067;28;20063;-50
2022/10/07 10:23:49;;;;;;;11.23;1.95;;;;;;;17.77;80.09;102140.19;5112942;28;20059;-51
2022/10/07 10:26:38;;;;;;;12.55;2.30;;;;;;;17.88;78.27;102142.88;5113273;28;20048;-53
2022/10/07 10:29:22;;;;;;;11.98;2.20;;;;;;;17.66;79.89;102138.34;5113368;28;20040;-52
2022/10/07 10:32:08;;;;;;;15.70;2.60;;;;;;;17.80;80.96;102134.63;5113363;28;20051;-52
2022/10/07 10:34:43;;;;;;;11.57;2.58;;;;;;;17.89;78.50;102124.13;5113347;28;20101;-50
2022/10/07 10:37:20;;;;;;;12.35;2.35;;;;;;;18.03;81.32;102124.94;5113035;28;20414;-50
2022/10/07 10:40:01;;;;;;;8.05;1.88;;;;;;;18.15;79.52;102123.16;5113038;28;20063;-51
2022/10/07 10:42:43;;;;;;;10.75;2.17;;;;;;;18.27;77.87;102126.66;5113060;28;20047;-53
2022/10/07 10:45:32;;;;;;;11.25;2.30;;;;;;;18.34;76.29;102123.41;5113107;28;20081;-52
2022/10/07 10:48:18;;;;;;;12.00;2.10;;;;;;;18.45;76.07;102116.38;5109535;28;20055;-52
2022/10/07 10:50:53;;;;;;;8.23;1.95;;;;;;;18.62;73.77;102113.22;5110920;28;20530;-54
2022/10/07 10:53:33;;;;;;;13.77;2.55;;;;;;;18.50;73.82;102107.06;5110391;28;20120;-53
2022/10/07 10:56:13;;;;;;;10.55;2.05;;;;;;;18.75;73.65;102100.63;5112589;28;20109;-54
2022/10/07 10:58:53;;;;;;;10.85;1.75;;;;;;;19.03;73.83;102101.09;5112287;28;20096;-51
2022/10/07 11:01:32;;;;;;;10.05;2.13;;;;;;;19.35;72.72;102081.59;5109743;28;20044;-52
2022/10/07 11:04:22;;;;;;;12.68;2.10;;;;;;;19.36;69.82;102085.09;5109672;28;20387;-52
2022/10/07 11:06:55;;;;;;;12.68;2.20;;;;;;;19.45;67.90;102075.50;5110725;28;20059;-53
2022/10/07 11:09:37;;;;;;;10.75;2.00;;;;;;;19.85;67.21;102064.13;5099145;28;20109;-50
2022/10/07 11:12:18;;;;;;;7.60;1.67;;;;;;;20.41;63.28;102053.03;5097534;28;20039;-55
2022/10/07 11:14:51;;;;;;;10.65;2.03;;;;;;;20.66;62.92;102056.19;5107716;28;20444;-57
2022/10/07 11:17:30;;;;;;;14.43;2.42;;;;;;;21.13;61.65;102047.53;5099884;28;20436;-62
2022/10/07 11:20:07;;;;;;;12.13;2.00;;;;;;;21.42;58.10;102049.38;5090207;28;20060;-54
2022/10/07 11:22:41;;;;;;;9.82;1.60;;;;;;;21.98;57.70;102045.06;5088410;28;20047;-52
2022/10/07 11:25:19;;;;;;;11.00;2.03;;;;;;;22.03;56.05;102039.25;5089616;28;20499;-53
2022/10/07 11:27:50;;;;;;;12.70;1.95;;;;;;;22.48;56.30;102032.31;5088980;28;20048;-53
2022/10/07 11:30:22;;;;;;;9.02;1.70;;;;;;;22.33;55.37;102040.81;5092552;28;20052;-54
2022/10/07 11:32:56;;;;;;;10.68;2.25;;;;;;;22.75;55.34;102026.09;5092111;28;20044;-53
2022/10/07 11:35:30;;;;;;;11.15;2.08;;;;;;;22.98;52.87;102012.22;5092613;28;20059;-56
2022/10/07 11:38:03;;;;;;;10.60;1.75;;;;;;;23.28;50.88;102016.38;5095829;28;20419;-56
2022/10/07 11:40:34;;;;;;;12.35;3.75;;;;;;;23.03;51.28;102005.41;5096108;28;20067;-54
2022/10/07 11:43:08;;;;;;;9.52;1.95;;;;;;;23.17;51.52;102004.03;5095975;28;20044;-54
2022/10/07 11:45:42;;;;;;;10.68;2.10;;;;;;;23.58;51.64;101993.59;5094102;28;20059;-54